Depesze METAR lotnisk w Polsce

METAR – format kodowanego raportu o pogodzie używany w meteorologii lotniczej i prognozie pogody. METAR jest akronimem od ang. Meteorological Aerodrome Report. Typowy METAR zawiera informację o temperaturze, ciśnieniu, temperaturze punktu rosy, sile i kierunku wiatru, opadzie, pokrywie chmur, wysokości podstawy chmur, widzialności, lecz może zawierać też inne informacje (np. stan dróg startowych).

Warszawa-Okęcie (EPWA)

METAR = EPWA 221300Z 25010KT 210V280 9999 FEW045CB 17/06 Q1016 NOSIG

STACJA......... EPWA - Warszawa-Okęcie (WAW)
POMIAR......... Sat Sep 22, 15:00 CEST
WIATR.......... zachodni południowo-zachodni (WSW) z prędkością 19 km/h
WIDZIALNOŚĆ.... powyżej 10 kilometrów
CHMURY......... zachmurzenie niewielkie (1/8-2/8)
TEMPERATURA.... 17°C
T.PUNKTU ROSY.. 6°C
WILGOTNOŚĆ..... 49%
CIŚNIENIE...... 1016 hPa
CIŚN.BEZWZGL... 1003 hPa
PROGNOZA....... bez nagłych zmian w ciągu 2h

Sprawdź też: Prognoza pogody Warszawa

Warszawa-Modlin (EPMO)

METAR = EPMO 221230Z 25013KT 210V270 9999 FEW048CB 16/06 Q1016 =

STACJA......... EPMO - Warszawa-Modlin (WMI)
POMIAR......... Sat Sep 22, 14:30 CEST
WIATR.......... zachodni południowo-zachodni (WSW) z prędkością 24 km/h
WIDZIALNOŚĆ.... powyżej 10 kilometrów
CHMURY......... zachmurzenie niewielkie (1/8-2/8)
TEMPERATURA.... 16°C
T.PUNKTU ROSY.. 6°C
WILGOTNOŚĆ..... 52%
CIŚNIENIE...... 1016 hPa
CIŚN.BEZWZGL... 1004 hPa

Sprawdź też: Prognoza pogody Nowy Dwór Mazowiecki

Kraków-Balice (EPKK)

METAR = EPKK 221300Z 23009KT 9999 FEW035 15/09 Q1019

STACJA......... EPKK - Kraków-Balice (KRK)
POMIAR......... Sat Sep 22, 15:00 CEST
WIATR.......... południowo-zachodni (SW) z prędkością 17 km/h
WIDZIALNOŚĆ.... powyżej 10 kilometrów
CHMURY......... zachmurzenie niewielkie (1/8-2/8)
TEMPERATURA.... 15°C
T.PUNKTU ROSY.. 9°C
WILGOTNOŚĆ..... 68%
CIŚNIENIE...... 1019 hPa
CIŚN.BEZWZGL... 990 hPa

Sprawdź też: Prognoza pogody Kraków

Łódź-Lublinek (EPLL)

METAR = EPLL 221300Z 27016KT 9999 SCT043 13/08 Q1018

STACJA......... EPLL - Łódź-Lublinek (LCJ)
POMIAR......... Sat Sep 22, 15:00 CEST
WIATR.......... zachodni (W) z prędkością 30 km/h
WIDZIALNOŚĆ.... powyżej 10 kilometrów
CHMURY......... zachmurzenie małe (3/8-4/8)
TEMPERATURA.... 13°C
T.PUNKTU ROSY.. 8°C
WILGOTNOŚĆ..... 72%
CIŚNIENIE...... 1018 hPa
CIŚN.BEZWZGL... 996 hPa

Sprawdź też: Prognoza pogody Łódź

Wrocław-Strachowice (EPWR)

METAR = EPWR 221300Z 27012KT 230V310 CAVOK 18/05 Q1019

STACJA......... EPWR - Wrocław-Strachowice (WRO)
POMIAR......... Sat Sep 22, 15:00 CEST
WIATR.......... zachodni (W) z prędkością 22 km/h
WIDZIALNOŚĆ.... powyżej 10 kilometrów
CHMURY......... bezchmurne niebo
TEMPERATURA.... 18°C
T.PUNKTU ROSY.. 5°C
WILGOTNOŚĆ..... 43%
CIŚNIENIE...... 1019 hPa
CIŚN.BEZWZGL... 1004 hPa

Sprawdź też: Prognoza pogody Wrocław

Katowice-Pyrzowice (EPKT)

METAR = EPKT 221300Z 27014KT CAVOK 16/04 Q1019

STACJA......... EPKT - Katowice-Pyrzowice (KTW)
POMIAR......... Sat Sep 22, 15:00 CEST
WIATR.......... zachodni (W) z prędkością 26 km/h
WIDZIALNOŚĆ.... powyżej 10 kilometrów
CHMURY......... bezchmurne niebo
TEMPERATURA.... 16°C
T.PUNKTU ROSY.. 4°C
WILGOTNOŚĆ..... 45%
CIŚNIENIE...... 1019 hPa
CIŚN.BEZWZGL... 983 hPa

Sprawdź też: Prognoza pogody Katowice

Gdańsk (EPGD)

METAR = EPGD 221300Z 32005KT 260V350 9999 FEW016 BKN033 13/09 Q1013

STACJA......... EPGD - Gdańsk im. Lecha Wałęsy (GDN)
POMIAR......... Sat Sep 22, 15:00 CEST
WIATR.......... północno zachodni (NW) z prędkością 9 km/h
WIDZIALNOŚĆ.... powyżej 10 kilometrów
CHMURY......... zachmurzenie średnie (5/8-7/8)
TEMPERATURA.... 13°C
T.PUNKTU ROSY.. 9°C
WILGOTNOŚĆ..... 77%
CIŚNIENIE...... 1013 hPa
CIŚN.BEZWZGL... 995 hPa

Sprawdź też: Prognoza pogody Gdańsk

Poznań-Ławica (EPPO)

METAR = EPPO 221300Z 26013KT 9999 SCT033 16/07 Q1017

STACJA......... EPPO - Poznań-Ławica (POZ)
POMIAR......... Sat Sep 22, 15:00 CEST
WIATR.......... zachodni (W) z prędkością 24 km/h
WIDZIALNOŚĆ.... powyżej 10 kilometrów
CHMURY......... zachmurzenie małe (3/8-4/8)
TEMPERATURA.... 16°C
T.PUNKTU ROSY.. 7°C
WILGOTNOŚĆ..... 55%
CIŚNIENIE...... 1017 hPa
CIŚN.BEZWZGL... 1006 hPa

Sprawdź też: Prognoza pogody Poznań

Rzeszów-Jasionka (EPRZ)

METAR = EPRZ 221300Z 19009KT 140V210 9999 FEW041 12/10 Q1020

STACJA......... EPRZ - Rzeszów-Jasionka (RZE)
POMIAR......... Sat Sep 22, 15:00 CEST
WIATR.......... południowy (S) z prędkością 17 km/h
WIDZIALNOŚĆ.... powyżej 10 kilometrów
CHMURY......... zachmurzenie niewielkie (1/8-2/8)
TEMPERATURA.... 12°C
T.PUNKTU ROSY.. 10°C
WILGOTNOŚĆ..... 88%
CIŚNIENIE...... 1020 hPa
CIŚN.BEZWZGL... 995 hPa

Sprawdź też: Prognoza pogody Rzeszów

Szczecin-Goleniów (EPSC)

METAR = EPSC 221300Z 23010KT 190V260 9999 FEW034TCU SCT038 16/06 Q1014

STACJA......... EPSC - Szczecin-Goleniów (SZZ)
POMIAR......... Sat Sep 22, 15:00 CEST
WIATR.......... południowo-zachodni (SW) z prędkością 19 km/h
WIDZIALNOŚĆ.... powyżej 10 kilometrów
CHMURY......... zachmurzenie małe (3/8-4/8)
TEMPERATURA.... 16°C
T.PUNKTU ROSY.. 6°C
WILGOTNOŚĆ..... 52%
CIŚNIENIE...... 1014 hPa
CIŚN.BEZWZGL... 1008 hPa

Sprawdź też: Prognoza pogody Szczecin

Lublin-Świdnik (EPLB)

METAR = EPLB 221230Z 22008KT CAVOK 14/12 Q1018 =

STACJA......... EPLB - Lublin-Świdnik (LUZ)
POMIAR......... Sat Sep 22, 14:30 CEST
WIATR.......... południowo-zachodni (SW) z prędkością 15 km/h
WIDZIALNOŚĆ.... powyżej 10 kilometrów
CHMURY......... bezchmurne niebo
TEMPERATURA.... 14°C
T.PUNKTU ROSY.. 12°C
WILGOTNOŚĆ..... 88%
CIŚNIENIE...... 1018 hPa
CIŚN.BEZWZGL... 994 hPa

Sprawdź też: Prognoza pogody Lublin

Bydgoszcz-Szwederowo (EPBY)

METAR = EPBY 221230Z 26014KT 9999 BKN031 14/07 Q1016 =

STACJA......... EPBY - Bydgoszcz-Szwederowo (BZG)
POMIAR......... Sat Sep 22, 14:30 CEST
WIATR.......... zachodni (W) z prędkością 26 km/h
WIDZIALNOŚĆ.... powyżej 10 kilometrów
CHMURY......... zachmurzenie średnie (5/8-7/8)
TEMPERATURA.... 14°C
T.PUNKTU ROSY.. 7°C
WILGOTNOŚĆ..... 63%
CIŚNIENIE...... 1016 hPa
CIŚN.BEZWZGL... 1007 hPa

Sprawdź też: Prognoza pogody Bydgoszcz

Zielona Góra-Babimost (EPZG)

METAR = EPZG 221230Z 25012KT 9999 BKN049 15/07 Q1018 =

STACJA......... EPZG - Zielona Góra-Babimost (IEG)
POMIAR......... Sat Sep 22, 14:30 CEST
WIATR.......... zachodni południowo-zachodni (WSW) z prędkością 22 km/h
WIDZIALNOŚĆ.... powyżej 10 kilometrów
CHMURY......... zachmurzenie średnie (5/8-7/8)
TEMPERATURA.... 15°C
T.PUNKTU ROSY.. 7°C
WILGOTNOŚĆ..... 59%
CIŚNIENIE...... 1018 hPa
CIŚN.BEZWZGL... 1011 hPa

Sprawdź też: Prognoza pogody Zielona Góra

Szymany Olsztyn-Mazury (EPSY)

METAR = EPSY 221230Z 25013KT 220V280 9999 FEW040 15/05 Q1014=

STACJA......... EPSY - Olsztyn-Mazury (SZY)
POMIAR......... Sat Sep 22, 14:30 CEST
WIATR.......... zachodni południowo-zachodni (WSW) z prędkością 24 km/h
WIDZIALNOŚĆ.... powyżej 10 kilometrów
CHMURY......... zachmurzenie niewielkie (1/8-2/8)
TEMPERATURA.... 15°C
T.PUNKTU ROSY.. 5°C
WILGOTNOŚĆ..... 51%
CIŚNIENIE...... 1014 hPa
CIŚN.BEZWZGL... 997 hPa

Sprawdź też: Prognoza pogody Olsztyn